Time;durP1;ratioP1;P1;durP2;ratioP2;P2;SDS_P1;SDS_P2;PMS_P1;PMS_P2;Temp;Humidity;BMP_temperature;BMP_pressure;BME280_temperature;BME280_humidity;BME280_pressure;Samples;Min_cycle;Max_cycle;Signal;HPM_P1;HPM_P2
2022/03/03 00:01:46;;;;;;;18.70;14.63;;;1.40;99.90;;;;;;5031251;28;20496;-73
2022/03/03 00:04:12;;;;;;;18.83;15.50;;;1.40;99.90;;;;;;5032832;28;20034;-73
2022/03/03 00:06:37;;;;;;;20.70;15.07;;;1.30;99.90;;;;;;5030228;28;20096;-75
2022/03/03 00:09:04;;;;;;;23.38;16.08;;;1.30;99.90;;;;;;5031342;28;20041;-75
2022/03/03 00:11:31;;;;;;;22.70;14.98;;;1.20;99.90;;;;;;5030343;28;20478;-77
2022/03/03 00:13:57;;;;;;;22.88;17.67;;;1.30;99.90;;;;;;5034502;28;20413;-77
2022/03/03 00:16:24;;;;;;;31.95;20.00;;;1.30;99.90;;;;;;5031854;28;20101;-76
2022/03/03 00:18:49;;;;;;;27.95;19.02;;;1.30;99.90;;;;;;5048501;28;20052;-78
2022/03/03 00:21:15;;;;;;;23.45;17.08;;;1.20;99.90;;;;;;5036470;28;20021;-77
2022/03/03 00:23:40;;;;;;;24.40;17.38;;;1.20;99.90;;;;;;5036119;28;20021;-77
2022/03/03 00:26:07;;;;;;;24.90;17.70;;;1.20;99.90;;;;;;5035873;28;20064;-81
2022/03/03 00:28:33;;;;;;;25.70;18.50;;;1.10;99.90;;;;;;5038425;28;20105;-78
2022/03/03 00:30:58;;;;;;;26.27;19.02;;;1.10;99.90;;;;;;5039955;28;20072;-78
2022/03/03 00:33:24;;;;;;;22.63;17.85;;;1.10;99.90;;;;;;5039941;28;20085;-77
2022/03/03 00:35:49;;;;;;;26.17;17.70;;;1.10;99.90;;;;;;5030133;28;20026;-82
2022/03/03 00:38:16;;;;;;;24.27;16.67;;;1.20;99.90;;;;;;5058802;28;20497;-84
2022/03/03 00:40:41;;;;;;;22.50;16.90;;;1.10;99.90;;;;;;5045478;28;20084;-84
2022/03/03 00:43:08;;;;;;;23.83;17.00;;;1.10;99.90;;;;;;5042192;28;20033;-83
2022/03/03 00:45:34;;;;;;;29.77;15.75;;;1.10;99.90;;;;;;5058365;28;20033;-81
2022/03/03 00:48:00;;;;;;;25.35;16.27;;;1.00;99.90;;;;;;5051278;28;20025;-82
2022/03/03 00:50:26;;;;;;;23.52;15.27;;;1.00;99.90;;;;;;5055372;28;20043;-83
2022/03/03 00:52:52;;;;;;;27.17;16.10;;;1.00;99.90;;;;;;5041155;28;20025;-82
2022/03/03 00:55:17;;;;;;;21.27;16.02;;;1.00;99.90;;;;;;5042160;28;20466;-83
2022/03/03 00:57:43;;;;;;;28.48;18.48;;;0.90;99.90;;;;;;5054695;28;20089;-82
2022/03/03 01:00:09;;;;;;;33.95;21.83;;;0.90;99.90;;;;;;5059505;28;20105;-83
2022/03/03 01:02:35;;;;;;;30.65;18.83;;;0.80;99.90;;;;;;5040037;28;20022;-82
2022/03/03 01:05:01;;;;;;;26.05;18.27;;;0.80;99.90;;;;;;5038905;28;20037;-83
2022/03/03 01:07:27;;;;;;;20.45;15.90;;;0.80;99.90;;;;;;5043006;28;20022;-83
2022/03/03 01:09:53;;;;;;;22.55;17.58;;;0.80;99.90;;;;;;5040475;28;20041;-83
2022/03/03 01:12:18;;;;;;;22.33;16.40;;;0.70;99.90;;;;;;5042298;28;20029;-84
2022/03/03 01:14:44;;;;;;;27.15;17.45;;;0.70;99.90;;;;;;5052456;28;20017;-82
2022/03/03 01:17:10;;;;;;;26.00;15.95;;;0.70;99.90;;;;;;5032069;28;20021;-82
2022/03/03 01:19:35;;;;;;;21.35;16.35;;;0.70;99.90;;;;;;5033492;28;20221;-82
2022/03/03 01:22:01;;;;;;;20.63;16.70;;;0.70;99.90;;;;;;5047499;28;20038;-83
2022/03/03 01:24:26;;;;;;;22.58;17.55;;;0.70;99.90;;;;;;5038754;28;20049;-83
2022/03/03 01:26:52;;;;;;;22.58;16.55;;;0.70;99.90;;;;;;5040874;28;20022;-83
2022/03/03 01:29:18;;;;;;;28.80;16.80;;;0.70;99.90;;;;;;5039811;28;20033;-83
2022/03/03 01:31:43;;;;;;;25.25;18.40;;;0.70;99.90;;;;;;5038287;28;20025;-83
2022/03/03 01:34:09;;;;;;;23.75;16.63;;;0.60;99.90;;;;;;5035269;28;20030;-83
2022/03/03 01:36:35;;;;;;;24.42;16.20;;;0.60;99.90;;;;;;5061806;28;20025;-83
2022/03/03 01:39:02;;;;;;;22.10;15.95;;;0.60;99.90;;;;;;5045024;28;20040;-83
2022/03/03 01:41:27;;;;;;;22.50;16.67;;;0.60;99.90;;;;;;5042913;28;20105;-85
2022/03/03 01:43:53;;;;;;;28.23;17.10;;;0.50;99.90;;;;;;5042729;28;20563;-84
2022/03/03 01:46:18;;;;;;;28.02;17.00;;;0.50;99.90;;;;;;5041210;28;20014;-84
2022/03/03 01:48:44;;;;;;;26.30;16.90;;;0.50;99.90;;;;;;5034357;28;20022;-83
2022/03/03 01:51:10;;;;;;;25.75;17.15;;;0.50;99.90;;;;;;5040735;28;20029;-81
2022/03/03 01:53:36;;;;;;;23.92;17.40;;;0.50;99.90;;;;;;5041188;28;20056;-82
2022/03/03 01:56:02;;;;;;;22.13;16.85;;;0.40;99.90;;;;;;5059047;28;20025;-84
2022/03/03 01:58:28;;;;;;;30.48;18.20;;;0.50;99.90;;;;;;5043920;28;20029;-83
2022/03/03 02:00:54;;;;;;;21.80;16.60;;;0.50;99.90;;;;;;5039453;28;20033;-83
2022/03/03 02:03:20;;;;;;;25.38;19.02;;;0.50;99.90;;;;;;5039013;28;20089;-83
2022/03/03 02:05:46;;;;;;;30.38;18.02;;;0.60;99.90;;;;;;5060645;28;20371;-83
2022/03/03 02:08:13;;;;;;;26.73;17.40;;;0.50;99.90;;;;;;5043887;28;20043;-84
2022/03/03 02:10:39;;;;;;;29.05;18.33;;;0.60;99.90;;;;;;5044597;28;20109;-82
2022/03/03 02:13:05;;;;;;;30.40;18.10;;;0.50;99.90;;;;;;5044728;28;20053;-83
2022/03/03 02:15:30;;;;;;;27.67;19.15;;;0.50;99.90;;;;;;5056934;28;20033;-82
2022/03/03 02:17:56;;;;;;;28.45;19.75;;;0.40;99.90;;;;;;5044659;28;20029;-84
2022/03/03 02:20:24;;;;;;;24.58;17.77;;;0.30;99.90;;;;;;5043050;28;20025;-83
2022/03/03 02:22:51;;;;;;;27.75;19.83;;;0.40;99.90;;;;;;5042914;28;20497;-82
2022/03/03 02:25:17;;;;;;;29.15;19.08;;;0.30;99.90;;;;;;5056677;28;20058;-83
2022/03/03 02:27:44;;;;;;;27.20;18.90;;;0.20;1.00;;;;;;5043314;28;20147;-82
2022/03/03 02:30:12;;;;;;;33.72;20.90;;;0.20;99.90;;;;;;5040272;28;20078;-82
2022/03/03 02:32:38;;;;;;;34.65;20.73;;;0.30;99.90;;;;;;5057927;28;20025;-83
2022/03/03 02:35:05;;;;;;;28.52;20.17;;;0.30;99.90;;;;;;5042213;28;20025;-82
2022/03/03 02:37:35;;;;;;;28.67;19.27;;;0.20;1.00;;;;;;5051204;28;20025;-83
2022/03/03 02:40:02;;;;;;;31.63;20.52;;;0.30;1.00;;;;;;5046000;28;20048;-83
2022/03/03 02:42:28;;;;;;;30.33;21.02;;;0.30;99.90;;;;;;5039696;28;20075;-82
2022/03/03 02:44:54;;;;;;;32.60;19.73;;;0.30;99.90;;;;;;5049073;28;20034;-83
2022/03/03 02:47:19;;;;;;;28.60;20.15;;;0.20;99.90;;;;;;5034961;28;20116;-83
2022/03/03 02:49:45;;;;;;;41.03;24.02;;;0.10;99.90;;;;;;5051432;28;20032;-82
2022/03/03 02:52:10;;;;;;;56.92;29.23;;;0.20;99.90;;;;;;5038538;28;20033;-83
2022/03/03 02:54:36;;;;;;;35.70;21.70;;;0.20;99.90;;;;;;5042465;28;20032;-82
2022/03/03 02:59:46;;;;;;;34.42;21.27;;;0.30;99.90;;;;;;5044888;28;20032;-83
2022/03/03 03:02:12;;;;;;;38.53;20.75;;;0.30;99.90;;;;;;5043987;28;20021;-82
2022/03/03 03:04:37;;;;;;;35.33;20.80;;;0.30;99.90;;;;;;5039712;28;20026;-83
2022/03/03 03:07:03;;;;;;;37.17;22.95;;;0.30;99.90;;;;;;5047678;28;20026;-83
2022/03/03 03:09:29;;;;;;;38.70;23.75;;;0.20;99.90;;;;;;5043387;28;20480;-82
2022/03/03 03:11:55;;;;;;;37.50;24.02;;;0.20;99.90;;;;;;5045306;28;20111;-82
2022/03/03 03:14:21;;;;;;;37.67;23.50;;;0.10;99.90;;;;;;5061249;28;20033;-84
2022/03/03 03:16:46;;;;;;;32.40;20.17;;;0.10;99.90;;;;;;5042211;28;20026;-83
2022/03/03 03:19:12;;;;;;;33.70;20.35;;;0.10;99.90;;;;;;5059673;28;20028;-83
2022/03/03 03:21:38;;;;;;;32.88;18.70;;;0.00;99.90;;;;;;5041424;28;20069;-83
2022/03/03 03:24:04;;;;;;;30.50;18.38;;;0.00;99.90;;;;;;5059022;28;20025;-82
2022/03/03 03:26:29;;;;;;;26.48;19.30;;;0.00;99.90;;;;;;5057827;28;20039;-85
2022/03/03 03:28:55;;;;;;;28.42;19.38;;;0.00;99.90;;;;;;5044486;28;20029;-83
2022/03/03 03:31:20;;;;;;;31.10;20.73;;;0.00;99.90;;;;;;5037881;28;20021;-83
2022/03/03 03:33:46;;;;;;;34.28;21.65;;;0.00;99.90;;;;;;5037215;28;20053;-82
2022/03/03 03:36:11;;;;;;;36.55;21.13;;;0.00;99.90;;;;;;5046407;28;20021;-82
2022/03/03 03:38:37;;;;;;;34.33;20.33;;;-0.10;99.90;;;;;;5044124;28;20037;-83
2022/03/03 03:41:03;;;;;;;33.08;20.23;;;-0.10;99.90;;;;;;5048976;28;20076;-83
2022/03/03 03:43:28;;;;;;;34.35;20.58;;;-0.10;1.00;;;;;;5041588;28;20045;-82
2022/03/03 03:45:54;;;;;;;33.17;19.42;;;-0.20;1.00;;;;;;5048467;28;20702;-81
2022/03/03 03:48:19;;;;;;;35.47;20.20;;;-0.20;1.00;;;;;;5038063;28;20021;-83
2022/03/03 03:50:45;;;;;;;26.77;19.13;;;-0.20;1.00;;;;;;5047424;28;20029;-83
2022/03/03 03:53:11;;;;;;;27.17;19.33;;;-0.20;1.00;;;;;;5058292;28;20026;-84
2022/03/03 03:55:36;;;;;;;32.72;20.30;;;-0.20;1.00;;;;;;5058172;28;20055;-83
2022/03/03 03:58:02;;;;;;;27.00;19.35;;;-0.20;1.00;;;;;;5057564;28;20024;-84
2022/03/03 04:00:28;;;;;;;30.35;19.55;;;-0.20;1.00;;;;;;5057241;28;20029;-84
2022/03/03 04:02:54;;;;;;;29.13;18.30;;;-0.20;1.00;;;;;;5055219;28;20056;-83
2022/03/03 04:05:20;;;;;;;27.25;19.67;;;-0.20;1.00;;;;;;5054911;28;20049;-83
2022/03/03 04:07:46;;;;;;;24.55;19.60;;;-0.20;1.00;;;;;;5053250;28;20025;-84
2022/03/03 04:10:12;;;;;;;31.30;20.02;;;-0.20;1.00;;;;;;5045866;28;20029;-83
2022/03/03 04:12:39;;;;;;;29.42;18.85;;;-0.20;1.00;;;;;;5042566;28;20029;-82
2022/03/03 04:15:05;;;;;;;28.33;19.95;;;-0.30;1.00;;;;;;5041616;28;20394;-83
2022/03/03 04:17:31;;;;;;;30.25;20.08;;;-0.30;1.00;;;;;;5036324;28;20105;-83
2022/03/03 04:19:56;;;;;;;28.65;19.08;;;-0.30;1.00;;;;;;5044351;28;20353;-83
2022/03/03 04:22:22;;;;;;;28.75;20.65;;;-0.30;1.00;;;;;;5057473;28;20030;-84
2022/03/03 04:24:47;;;;;;;26.52;19.73;;;-0.40;1.00;;;;;;5046356;28;20040;-83
2022/03/03 04:27:13;;;;;;;28.42;20.63;;;-0.40;1.00;;;;;;5046176;28;20096;-82
2022/03/03 04:29:40;;;;;;;29.35;19.05;;;-0.40;1.00;;;;;;5044985;28;20068;-84
2022/03/03 04:32:06;;;;;;;29.48;18.73;;;-0.40;1.00;;;;;;5046773;28;20040;-82
2022/03/03 04:34:34;;;;;;;25.38;19.52;;;-0.40;1.00;;;;;;5042084;28;20025;-83
2022/03/03 04:37:00;;;;;;;35.83;19.80;;;-0.40;1.00;;;;;;5059780;28;20044;-82
2022/03/03 04:39:25;;;;;;;31.05;19.83;;;-0.40;1.00;;;;;;5055652;28;20065;-83
2022/03/03 04:41:51;;;;;;;29.38;21.05;;;-0.40;1.00;;;;;;5039632;28;20122;-83
2022/03/03 04:44:16;;;;;;;31.02;19.67;;;-0.40;1.00;;;;;;5039840;28;20029;-83
2022/03/03 04:46:42;;;;;;;30.48;20.50;;;-0.40;1.00;;;;;;5060239;28;20025;-83
2022/03/03 04:49:08;;;;;;;39.08;21.73;;;-0.40;1.00;;;;;;5046387;28;20080;-81
2022/03/03 04:51:36;;;;;;;34.90;20.27;;;-0.40;1.00;;;;;;5044843;28;20401;-82
2022/03/03 04:54:03;;;;;;;40.53;24.60;;;-0.50;1.00;;;;;;5042015;28;20052;-82
2022/03/03 04:56:29;;;;;;;32.90;21.38;;;-0.50;1.00;;;;;;5034371;28;20438;-83
2022/03/03 04:58:54;;;;;;;38.13;22.50;;;-0.50;1.00;;;;;;5044908;28;20033;-84
2022/03/03 05:01:20;;;;;;;32.92;20.65;;;-0.50;1.00;;;;;;5047652;28;20041;-83
2022/03/03 05:03:45;;;;;;;37.10;20.75;;;-0.50;1.00;;;;;;5048473;28;20521;-83
2022/03/03 05:06:11;;;;;;;36.42;20.65;;;-0.50;99.90;;;;;;5050136;28;20505;-85
2022/03/03 05:08:36;;;;;;;28.52;19.17;;;-0.50;1.00;;;;;;5063977;28;20025;-84
2022/03/03 05:11:03;;;;;;;27.08;19.35;;;-0.60;99.90;;;;;;5039484;28;20055;-82
2022/03/03 05:13:29;;;;;;;34.33;21.85;;;-0.50;99.90;;;;;;5043569;28;20037;-83
2022/03/03 05:15:54;;;;;;;27.52;20.52;;;-0.50;99.90;;;;;;5045116;28;20036;-83
2022/03/03 05:18:20;;;;;;;33.42;21.40;;;-0.50;99.90;;;;;;5047175;28;20049;-82
2022/03/03 05:20:46;;;;;;;33.47;19.98;;;-0.50;99.90;;;;;;5059021;28;20042;-84
2022/03/03 05:23:11;;;;;;;42.83;24.60;;;-0.60;99.90;;;;;;5060526;28;20048;-85
2022/03/03 05:25:37;;;;;;;34.33;20.50;;;-0.60;99.90;;;;;;5072505;28;20033;-85
2022/03/03 05:28:03;;;;;;;30.10;20.38;;;-0.60;1.00;;;;;;5047704;28;20089;-84
2022/03/03 05:30:29;;;;;;;31.42;19.90;;;-0.60;1.00;;;;;;5053569;28;20079;-83
2022/03/03 05:32:55;;;;;;;36.67;22.73;;;-0.60;1.00;;;;;;5054923;28;20120;-82
2022/03/03 05:35:21;;;;;;;31.00;21.42;;;-0.60;1.00;;;;;;5044605;28;20045;-83
2022/03/03 05:37:47;;;;;;;33.92;19.58;;;-0.60;1.00;;;;;;5061412;28;20040;-83
2022/03/03 05:40:14;;;;;;;30.75;20.08;;;-0.70;1.00;;;;;;5043019;28;20041;-83
2022/03/03 05:42:40;;;;;;;39.45;21.42;;;-0.70;1.00;;;;;;5063360;28;20025;-82
2022/03/03 05:45:06;;;;;;;31.98;21.88;;;-0.70;1.00;;;;;;5034624;28;20032;-84
2022/03/03 05:47:34;;;;;;;32.05;20.52;;;-0.70;1.00;;;;;;5030831;28;20029;-83
2022/03/03 05:50:00;;;;;;;34.05;20.70;;;-0.70;1.00;;;;;;5048763;28;20041;-83
2022/03/03 05:52:27;;;;;;;29.20;19.08;;;-0.50;99.90;;;;;;5052986;28;20029;-81
2022/03/03 05:54:52;;;;;;;33.30;19.30;;;-0.40;99.90;;;;;;5037462;28;20417;-82
2022/03/03 05:57:24;;;;;;;35.63;19.90;;;-0.40;99.90;;;;;;5042585;28;20029;-81
2022/03/03 05:59:53;;;;;;;32.22;18.95;;;-0.40;99.90;;;;;;5051861;28;20025;-83
2022/03/03 06:02:20;;;;;;;29.17;20.10;;;-0.40;99.90;;;;;;5040926;28;20021;-82
2022/03/03 06:04:48;;;;;;;37.20;19.80;;;-0.50;99.90;;;;;;5043607;28;20041;-83
2022/03/03 06:07:20;;;;;;;37.55;20.23;;;-0.50;99.90;;;;;;5043859;28;20088;-82
2022/03/03 06:09:50;;;;;;;36.05;20.75;;;-0.50;99.90;;;;;;5044500;28;20025;-83
2022/03/03 06:13:01;;;;;;;33.88;19.45;;;-0.60;99.90;;;;;;5055789;28;20028;-83
2022/03/03 06:15:28;;;;;;;36.22;20.13;;;-0.60;99.90;;;;;;5041453;28;20033;-82
2022/03/03 06:17:55;;;;;;;30.45;19.63;;;-0.60;99.90;;;;;;5043012;28;20033;-84
2022/03/03 06:20:23;;;;;;;36.25;21.48;;;-0.60;99.90;;;;;;5043271;28;20033;-84
2022/03/03 06:22:49;;;;;;;37.00;22.85;;;-0.60;99.90;;;;;;5055616;28;20041;-82
2022/03/03 06:25:14;;;;;;;36.53;20.67;;;-0.60;99.90;;;;;;5058438;28;20030;-83
2022/03/03 06:27:40;;;;;;;33.50;20.98;;;-0.50;99.90;;;;;;5035566;28;20022;-84
2022/03/03 06:30:06;;;;;;;34.15;22.92;;;-0.50;99.90;;;;;;5042655;28;20033;-84
2022/03/03 06:32:32;;;;;;;31.23;20.98;;;-0.40;99.90;;;;;;5041013;28;20026;-81
2022/03/03 06:34:57;;;;;;;35.38;19.95;;;-0.30;99.90;;;;;;5057298;28;20055;-83
2022/03/03 06:37:23;;;;;;;31.77;19.77;;;-0.30;99.90;;;;;;5041785;28;20056;-84
2022/03/03 06:39:49;;;;;;;36.00;20.73;;;-0.20;99.90;;;;;;5040549;28;20033;-83
2022/03/03 06:42:14;;;;;;;38.08;22.30;;;-0.20;99.90;;;;;;5040952;28;20112;-83
2022/03/03 06:44:40;;;;;;;33.70;19.58;;;-0.10;99.90;;;;;;5041830;28;20073;-84
2022/03/03 06:47:06;;;;;;;38.30;20.92;;;0.00;99.90;;;;;;5044267;28;20091;-82
2022/03/03 06:49:32;;;;;;;34.67;21.70;;;0.00;99.90;;;;;;5042892;28;20030;-83
2022/03/03 06:52:01;;;;;;;35.90;19.75;;;0.20;99.90;;;;;;5047864;28;20057;-85
2022/03/03 06:54:27;;;;;;;27.08;19.75;;;0.20;99.90;;;;;;5043102;28;20037;-82
2022/03/03 06:56:55;;;;;;;33.85;21.55;;;0.30;99.90;;;;;;5043784;28;20091;-83
2022/03/03 06:59:34;;;;;;;30.45;20.27;;;0.30;99.90;;;;;;5043537;28;20033;-84
2022/03/03 07:02:00;;;;;;;33.30;21.58;;;0.30;99.90;;;;;;5045225;28;20045;-83
2022/03/03 07:04:29;;;;;;;37.13;19.67;;;0.40;99.90;;;;;;5060685;28;20040;-83
2022/03/03 07:06:55;;;;;;;28.90;20.42;;;0.60;99.90;;;;;;5060318;28;20116;-84
2022/03/03 07:09:21;;;;;;;30.00;20.27;;;0.70;99.90;;;;;;5043572;28;20132;-84
2022/03/03 07:11:48;;;;;;;29.45;20.67;;;0.90;99.90;;;;;;5042752;28;20018;-82
2022/03/03 07:14:15;;;;;;;31.13;21.27;;;1.20;42.50;;;;;;5055891;28;20025;-82
2022/03/03 07:16:45;;;;;;;36.75;19.38;;;1.50;1.00;;;;;;5055631;28;20022;-82
2022/03/03 07:19:26;;;;;;;28.90;19.17;;;1.60;1.00;;;;;;5043835;28;20393;-84
2022/03/03 07:22:10;;;;;;;31.60;19.02;;;1.60;1.00;;;;;;5042986;28;20033;-83
2022/03/03 07:25:02;;;;;;;34.83;19.02;;;1.60;99.90;;;;;;5042780;28;20026;-82
2022/03/03 07:27:28;;;;;;;30.95;18.75;;;1.80;99.90;;;;;;5037743;28;20040;-82
2022/03/03 07:30:05;;;;;;;27.95;19.17;;;1.90;1.00;;;;;;5059865;28;20045;-82
2022/03/03 07:32:33;;;;;;;24.05;18.75;;;2.00;99.90;;;;;;5044065;28;20025;-82
2022/03/03 07:35:12;;;;;;;29.85;19.67;;;2.00;99.90;;;;;;5043401;28;20025;-83
2022/03/03 07:37:47;;;;;;;30.80;19.77;;;2.10;99.90;;;;;;5045297;28;20025;-83
2022/03/03 07:40:13;;;;;;;32.72;21.33;;;2.20;99.90;;;;;;5045019;28;20147;-82
2022/03/03 07:42:39;;;;;;;38.53;22.25;;;2.20;99.90;;;;;;5044154;28;20029;-82
2022/03/03 07:45:07;;;;;;;39.42;21.75;;;2.30;99.90;;;;;;5040308;28;20033;-83
2022/03/03 07:47:33;;;;;;;34.80;21.88;;;2.40;99.90;;;;;;5045621;28;20021;-82
2022/03/03 07:49:59;;;;;;;29.00;20.05;;;2.50;99.90;;;;;;5044839;28;20030;-83
2022/03/03 07:52:25;;;;;;;31.05;21.27;;;2.40;99.90;;;;;;5043430;28;20104;-83
2022/03/03 07:54:53;;;;;;;36.97;21.40;;;2.40;99.90;;;;;;5044480;28;20026;-83
2022/03/03 07:57:21;;;;;;;34.83;21.65;;;2.40;99.90;;;;;;5043294;28;20460;-84
2022/03/03 07:59:52;;;;;;;39.00;21.27;;;2.40;99.90;;;;;;5059073;28;20033;-82
2022/03/03 08:02:23;;;;;;;28.50;21.15;;;2.80;99.90;;;;;;5043550;28;20501;-82
2022/03/03 08:04:50;;;;;;;32.13;20.60;;;2.80;99.90;;;;;;5051918;28;20017;-84
2022/03/03 08:07:17;;;;;;;31.15;21.88;;;2.90;99.90;;;;;;5042997;28;20021;-78
2022/03/03 08:09:46;;;;;;;29.58;20.67;;;3.00;99.90;;;;;;5038508;28;20088;-78
2022/03/03 08:12:14;;;;;;;33.67;20.52;;;2.90;99.90;;;;;;5031628;28;20119;-79
2022/03/03 08:14:40;;;;;;;28.63;21.35;;;2.80;99.90;;;;;;5041524;28;20048;-79
2022/03/03 08:17:08;;;;;;;34.38;21.58;;;2.90;99.90;;;;;;5047749;28;20061;-80
2022/03/03 08:19:34;;;;;;;38.97;21.30;;;3.20;99.90;;;;;;5052512;28;20037;-78
2022/03/03 08:22:00;;;;;;;28.63;20.52;;;3.40;99.90;;;;;;5037991;28;20540;-79
2022/03/03 08:24:26;;;;;;;31.23;21.65;;;3.70;99.90;;;;;;5038910;28;20034;-80
2022/03/03 08:26:55;;;;;;;31.52;20.30;;;3.60;99.90;;;;;;5051677;28;20057;-79
2022/03/03 08:29:21;;;;;;;31.10;20.13;;;3.90;99.90;;;;;;5056171;28;20078;-78
2022/03/03 08:31:53;;;;;;;30.33;20.85;;;3.90;99.90;;;;;;5057558;28;20030;-78
2022/03/03 08:34:45;;;;;;;32.78;21.20;;;4.00;99.90;;;;;;5059128;28;20032;-79
2022/03/03 08:37:18;;;;;;;30.83;21.38;;;4.10;99.90;;;;;;5056699;28;20018;-79
2022/03/03 08:39:45;;;;;;;25.20;19.10;;;4.20;99.90;;;;;;5063743;28;22041;-78
2022/03/03 08:42:14;;;;;;;31.23;21.42;;;4.30;99.90;;;;;;5060265;28;20041;-79
2022/03/03 08:44:43;;;;;;;33.33;19.23;;;4.30;99.90;;;;;;5059387;28;20028;-79
2022/03/03 08:47:12;;;;;;;30.63;20.65;;;4.40;99.90;;;;;;5074569;28;20010;-80
2022/03/03 08:49:39;;;;;;;33.67;21.27;;;4.30;99.90;;;;;;5059483;28;20034;-80
2022/03/03 08:52:06;;;;;;;35.90;22.42;;;4.40;99.90;;;;;;5055372;28;20516;-79
2022/03/03 08:54:32;;;;;;;35.95;21.42;;;4.40;99.90;;;;;;5036984;28;20056;-79
2022/03/03 08:56:58;;;;;;;32.72;20.80;;;4.50;99.90;;;;;;5041503;28;20029;-81
2022/03/03 08:59:23;;;;;;;28.75;19.58;;;4.50;99.90;;;;;;5046008;28;20010;-80
2022/03/03 09:01:51;;;;;;;30.20;21.60;;;4.60;99.90;;;;;;5049008;28;20044;-79
2022/03/03 09:04:17;;;;;;;31.65;20.90;;;4.70;99.90;;;;;;5053557;28;20033;-80
2022/03/03 09:06:43;;;;;;;26.20;19.63;;;4.70;99.90;;;;;;5057486;28;20025;-79
2022/03/03 09:09:09;;;;;;;32.60;21.80;;;4.70;99.90;;;;;;5059597;28;20013;-79
2022/03/03 09:11:34;;;;;;;29.10;21.25;;;4.70;99.90;;;;;;5056049;28;20024;-80
2022/03/03 09:14:00;;;;;;;29.75;21.73;;;5.00;99.90;;;;;;5059459;28;20018;-79
2022/03/03 09:16:26;;;;;;;32.30;20.77;;;5.20;99.90;;;;;;5053618;28;20022;-80
2022/03/03 09:18:52;;;;;;;30.05;21.60;;;5.30;99.90;;;;;;5053990;28;20034;-80
2022/03/03 09:21:18;;;;;;;27.63;20.75;;;5.20;99.90;;;;;;5058550;28;20030;-81
2022/03/03 09:23:43;;;;;;;31.40;21.02;;;5.40;99.90;;;;;;5040015;28;20036;-80
2022/03/03 09:26:09;;;;;;;26.42;20.70;;;5.50;99.90;;;;;;5038723;28;20033;-78
2022/03/03 09:28:35;;;;;;;29.17;20.75;;;5.60;99.90;;;;;;5061510;28;20025;-81
2022/03/03 09:31:01;;;;;;;26.85;20.58;;;5.60;99.90;;;;;;5054131;28;20025;-80
2022/03/03 09:33:26;;;;;;;26.35;19.60;;;5.60;99.90;;;;;;5036482;28;20021;-79
2022/03/03 09:35:52;;;;;;;24.80;20.00;;;5.40;99.90;;;;;;5049549;28;20032;-79
2022/03/03 09:38:18;;;;;;;29.65;21.20;;;5.60;99.90;;;;;;5059289;28;20024;-78
2022/03/03 09:40:45;;;;;;;28.38;20.45;;;5.70;99.90;;;;;;5059164;28;20037;-81
2022/03/03 09:43:11;;;;;;;29.17;19.60;;;5.80;99.90;;;;;;5073822;28;20030;-80
2022/03/03 09:45:38;;;;;;;27.45;20.55;;;6.00;99.90;;;;;;5055716;28;20076;-80
2022/03/03 09:48:06;;;;;;;27.40;20.00;;;6.10;99.90;;;;;;5048381;28;20036;-80
2022/03/03 09:50:35;;;;;;;27.65;19.90;;;6.20;99.90;;;;;;5055591;28;20064;-80
2022/03/03 09:53:07;;;;;;;25.95;20.15;;;6.40;99.90;;;;;;5030846;28;20108;-81
2022/03/03 09:55:33;;;;;;;26.27;19.20;;;6.50;99.90;;;;;;5054909;28;20018;-81
2022/03/03 09:57:59;;;;;;;24.35;19.02;;;6.40;99.90;;;;;;5037751;28;20032;-79
2022/03/03 10:00:26;;;;;;;26.77;20.75;;;6.60;99.90;;;;;;5037030;28;20085;-80
2022/03/03 10:02:57;;;;;;;28.63;20.17;;;6.30;99.90;;;;;;5035167;28;20139;-80
2022/03/03 10:05:36;;;;;;;20.88;17.08;;;6.40;99.90;;;;;;5043864;28;20021;-81
2022/03/03 10:08:12;;;;;;;24.85;20.48;;;6.90;99.60;;;;;;5034598;28;20043;-81
2022/03/03 10:10:40;;;;;;;28.70;18.67;;;6.70;99.50;;;;;;5038445;28;20089;-84
2022/03/03 10:13:06;;;;;;;25.13;19.50;;;7.10;98.70;;;;;;5047281;28;20089;-81
2022/03/03 10:15:33;;;;;;;27.88;19.58;;;7.00;99.00;;;;;;5043374;28;20037;-83
2022/03/03 10:18:04;;;;;;;24.33;18.92;;;6.90;99.30;;;;;;5047827;28;20037;-81
2022/03/03 10:20:44;;;;;;;26.60;19.27;;;6.80;99.90;;;;;;5052367;28;20032;-81
2022/03/03 10:23:10;;;;;;;23.73;18.83;;;7.10;99.90;;;;;;5036712;28;20406;-81
2022/03/03 10:25:39;;;;;;;23.30;18.70;;;7.50;98.20;;;;;;5051695;28;20060;-80
2022/03/03 10:28:05;;;;;;;25.05;19.58;;;7.90;97.00;;;;;;5036770;28;20029;-81
2022/03/03 10:31:05;;;;;;;22.70;18.23;;;8.10;96.40;;;;;;5033217;28;20303;-81
2022/03/03 10:33:36;;;;;;;26.23;18.83;;;8.20;95.20;;;;;;5052103;28;20026;-80
2022/03/03 10:36:07;;;;;;;26.75;18.30;;;8.20;94.90;;;;;;5042604;28;20432;-82
2022/03/03 10:38:35;;;;;;;25.58;18.23;;;7.90;94.90;;;;;;5035216;28;20147;-81
2022/03/03 10:41:02;;;;;;;24.38;17.48;;;8.00;95.40;;;;;;5036049;28;20026;-80
2022/03/03 10:43:46;;;;;;;22.40;16.88;;;8.10;94.10;;;;;;5030252;28;20090;-80
2022/03/03 10:46:11;;;;;;;21.95;17.38;;;7.80;93.70;;;;;;5036052;28;20473;-81
2022/03/03 10:48:37;;;;;;;19.48;15.77;;;7.50;94.40;;;;;;5038897;28;20025;-80
2022/03/03 10:51:05;;;;;;;21.65;16.17;;;7.60;94.30;;;;;;5042601;28;20022;-80
2022/03/03 10:53:33;;;;;;;23.05;16.00;;;7.60;92.80;;;;;;5039320;28;20018;-80
2022/03/03 10:56:09;;;;;;;20.65;16.17;;;7.70;92.40;;;;;;5032481;28;20025;-81
2022/03/03 10:58:44;;;;;;;21.65;16.92;;;8.00;91.40;;;;;;5045237;28;20060;-80
2022/03/03 11:01:10;;;;;;;22.50;15.70;;;8.10;90.50;;;;;;5029043;28;20112;-78
2022/03/03 11:03:38;;;;;;;20.90;16.88;;;8.30;90.10;;;;;;5030115;28;20050;-75
2022/03/03 11:06:05;;;;;;;25.40;16.58;;;8.60;89.90;;;;;;5033079;28;20025;-76
2022/03/03 11:08:31;;;;;;;22.27;17.02;;;8.70;88.30;;;;;;5028620;28;20511;-78
2022/03/03 11:10:56;;;;;;;21.92;16.73;;;8.60;87.20;;;;;;5033027;28;20033;-76
2022/03/03 11:13:22;;;;;;;19.42;16.77;;;8.60;88.70;;;;;;5031367;28;20033;-76
2022/03/03 11:15:49;;;;;;;21.17;17.10;;;8.70;89.60;;;;;;5032362;28;20512;-75
2022/03/03 11:18:18;;;;;;;22.83;18.77;;;8.80;89.60;;;;;;5031479;28;20025;-74
2022/03/03 11:20:48;;;;;;;21.90;17.13;;;9.30;88.50;;;;;;5041943;28;20041;-77
2022/03/03 11:23:13;;;;;;;21.98;16.65;;;9.40;87.50;;;;;;5035228;28;20603;-77
2022/03/03 11:25:39;;;;;;;22.92;16.70;;;9.20;87.80;;;;;;5025699;28;20052;-75
2022/03/03 11:28:05;;;;;;;25.35;17.20;;;9.40;87.30;;;;;;5031164;28;20025;-75
2022/03/03 11:30:31;;;;;;;21.52;17.50;;;9.70;85.10;;;;;;5031315;28;20033;-75
2022/03/03 11:33:27;;;;;;;30.20;18.25;;;9.50;85.50;;;;;;5040512;28;20033;-75
2022/03/03 11:36:02;;;;;;;26.58;17.85;;;9.40;86.50;;;;;;5011763;28;20038;-76
2022/03/03 11:38:52;;;;;;;20.83;17.17;;;9.50;86.90;;;;;;5046718;28;20041;-74
2022/03/03 11:41:20;;;;;;;23.48;16.45;;;10.00;84.90;;;;;;5023992;28;20414;-75
2022/03/03 11:44:04;;;;;;;21.50;16.38;;;10.00;84.50;;;;;;5042646;28;20035;-78
2022/03/03 11:46:47;;;;;;;21.05;17.08;;;10.10;83.80;;;;;;5035866;28;20097;-76
2022/03/03 11:49:22;;;;;;;22.15;17.83;;;10.20;82.30;;;;;;5028191;28;20104;-77
2022/03/03 11:51:49;;;;;;;23.98;18.23;;;10.20;82.80;;;;;;5028905;28;20540;-77
2022/03/03 11:54:14;;;;;;;21.70;17.58;;;10.50;82.10;;;;;;5031343;28;20120;-76
2022/03/03 11:57:12;;;;;;;26.25;18.55;;;10.50;80.60;;;;;;5024514;28;20064;-74
2022/03/03 11:59:40;;;;;;;19.17;16.30;;;10.30;80.90;;;;;;4993814;28;20056;-74
2022/03/03 12:02:07;;;;;;;19.83;16.38;;;10.40;80.70;;;;;;5044866;28;20037;-74
2022/03/03 12:04:34;;;;;;;20.25;17.05;;;10.40;80.20;;;;;;5044477;28;20026;-74
2022/03/03 12:07:00;;;;;;;22.73;15.90;;;10.50;80.40;;;;;;5035359;28;20029;-74
2022/03/03 12:09:30;;;;;;;22.98;18.33;;;10.40;79.90;;;;;;5037636;28;20029;-74
2022/03/03 12:12:17;;;;;;;30.45;17.92;;;10.40;79.80;;;;;;5026041;28;20435;-74
2022/03/03 12:14:53;;;;;;;21.10;16.40;;;10.60;79.20;;;;;;5030055;28;20029;-75
2022/03/03 12:17:38;;;;;;;25.38;17.77;;;10.60;79.20;;;;;;5024650;28;20033;-75
2022/03/03 12:20:27;;;;;;;23.80;17.95;;;10.70;78.30;;;;;;5043769;28;20025;-76
2022/03/03 12:23:18;;;;;;;19.98;17.35;;;10.80;77.00;;;;;;5026348;28;20063;-75
2022/03/03 12:25:50;;;;;;;;;;;10.80;77.10;;;;;;5025172;28;20104;-74
2022/03/03 12:28:35;;;;;;;24.48;18.17;;;10.80;77.40;;;;;;5030971;28;19988;-75
2022/03/03 12:31:16;;;;;;;24.65;18.50;;;10.80;77.70;;;;;;5030821;28;20573;-74
2022/03/03 12:33:55;;;;;;;24.23;17.88;;;10.70;78.20;;;;;;5031376;28;20033;-76
2022/03/03 12:36:20;;;;;;;25.05;18.67;;;10.80;78.50;;;;;;5040415;28;20196;-77
2022/03/03 12:38:46;;;;;;;28.63;20.02;;;10.80;77.50;;;;;;5029584;28;20057;-76
2022/03/03 12:41:11;;;;;;;25.65;18.92;;;10.70;77.80;;;;;;5030804;28;20038;-77
2022/03/03 12:43:41;;;;;;;25.77;19.52;;;10.70;78.40;;;;;;5030812;28;20390;-74